Time;durP1;ratioP1;P1;durP2;ratioP2;P2;SDS_P1;SDS_P2;PMS_P1;PMS_P2;Temp;Humidity;BMP_temperature;BMP_pressure;BME280_temperature;BME280_humidity;BME280_pressure;Samples;Min_cycle;Max_cycle;Signal;HPM_P1;HPM_P2
2022/04/14 00:00:23;;;;;;;;;20.25;20.25;;;;;18.33;58.14;101491.41;2095747;28;47694;-59
2022/04/14 00:01:23;;;;;;;;;15.20;15.20;;;;;18.32;58.12;101486.97;2087694;28;47339;-59
2022/04/14 00:02:24;;;;;;;;;10.00;10.00;;;;;18.32;58.31;101486.09;2084069;28;47925;-60
2022/04/14 00:03:24;;;;;;;;;15.33;12.67;;;;;18.32;58.06;101486.09;2096817;28;47714;-60
2022/04/14 00:04:25;;;;;;;;;14.33;14.00;;;;;18.30;58.29;101482.59;2077256;28;48031;-59
2022/04/14 00:05:25;;;;;;;;;14.50;13.00;;;;;18.29;57.93;101481.69;2078389;28;47720;-60
2022/04/14 00:06:26;;;;;;;;;12.00;12.00;;;;;18.29;58.27;101480.81;2099991;28;47834;-59
2022/04/14 00:07:26;;;;;;;;;12.33;11.33;;;;;18.29;58.07;101479.00;2096548;28;45621;-60
2022/04/14 00:08:26;;;;;;;;;12.33;10.67;;;;;18.27;58.22;101480.03;2104230;28;47727;-58
2022/04/14 00:09:28;;;;;;;;;10.00;10.00;;;;;18.26;58.25;101473.78;2104026;28;47570;-58
2022/04/14 00:10:28;;;;;;;;;14.50;13.00;;;;;18.24;58.15;101481.03;2103313;28;47871;-59
2022/04/14 00:11:29;;;;;;;;;15.67;15.00;;;;;18.24;58.25;101478.34;2104198;28;47840;-58
2022/04/14 00:12:30;;;;;;;;;15.75;15.25;;;;;18.23;58.33;101480.16;2097879;28;48383;-59
2022/04/14 00:13:30;;;;;;;;;17.50;16.50;;;;;18.23;58.33;101477.47;2097439;28;47607;-59
2022/04/14 00:14:30;;;;;;;;;14.33;13.67;;;;;18.22;58.35;101485.59;2100526;27;47588;-59
2022/04/14 00:15:31;;;;;;;;;11.33;11.00;;;;;18.21;58.30;101487.41;2104519;28;47800;-59
2022/04/14 00:16:31;;;;;;;;;16.00;13.33;;;;;18.21;58.50;101481.16;2101145;28;47860;-60
2022/04/14 00:17:33;;;;;;;;;14.67;14.00;;;;;18.21;58.23;101486.53;2105236;28;47699;-57
2022/04/14 00:18:33;;;;;;;;;11.75;11.75;;;;;18.19;58.50;101480.34;2093792;28;47678;-59
2022/04/14 00:19:34;;;;;;;;;18.00;14.67;;;;;18.19;58.56;101480.34;2096535;28;45101;-60
2022/04/14 00:20:34;;;;;;;;;12.00;12.00;;;;;18.18;58.54;101479.47;2104302;28;47570;-58
2022/04/14 00:21:35;;;;;;;;;13.33;12.33;;;;;18.17;58.62;101480.41;2105199;28;47629;-60
2022/04/14 00:22:36;;;;;;;;;13.00;13.00;;;;;18.18;58.38;101489.34;2104769;28;47622;-60
2022/04/14 00:23:36;;;;;;;;;11.75;11.75;;;;;18.16;58.78;101477.78;2105099;28;47626;-60
2022/04/14 00:24:36;;;;;;;;;15.25;13.50;;;;;18.16;58.73;101486.69;2104564;28;47860;-60
2022/04/14 00:25:37;;;;;;;;;12.33;12.33;;;;;18.15;58.86;101484.97;2105207;28;48593;-60
2022/04/14 00:26:37;;;;;;;;;12.00;12.00;;;;;18.15;58.92;101482.28;2095639;28;47638;-60
2022/04/14 00:27:38;;;;;;;;;13.00;11.33;;;;;18.15;59.00;101490.31;2092229;28;47641;-60
2022/04/14 00:28:39;;;;;;;;;11.50;11.25;;;;;18.15;58.78;101481.41;2103242;28;48091;-60
2022/04/14 00:29:39;;;;;;;;;12.67;12.33;;;;;18.12;58.67;101474.34;2103872;28;47911;-60
2022/04/14 00:30:40;;;;;;;;;13.67;12.00;;;;;18.12;58.80;101481.53;2096898;28;47585;-60
2022/04/14 00:31:40;;;;;;;;;12.00;12.00;;;;;18.11;58.58;101486.03;2092544;28;47757;-60
2022/04/14 00:32:41;;;;;;;;;13.33;12.00;;;;;18.10;58.73;101483.41;2093989;28;46577;-60
2022/04/14 00:33:41;;;;;;;;;10.00;9.00;;;;;18.10;58.81;101478.03;2103245;28;45323;-60
2022/04/14 00:34:42;;;;;;;;;11.00;11.00;;;;;18.10;58.88;101483.41;2100522;28;47979;-59
2022/04/14 00:35:42;;;;;;;;;12.67;12.00;;;;;18.09;59.07;101474.47;2096827;28;47833;-59
2022/04/14 00:36:42;;;;;;;;;14.00;13.00;;;;;18.07;58.93;101483.53;2103025;28;45807;-59
2022/04/14 00:37:43;;;;;;;;;12.33;12.33;;;;;18.06;59.14;101477.28;2096886;28;47605;-59
2022/04/14 00:38:43;;;;;;;;;16.00;13.33;;;;;18.04;58.88;101471.13;2103082;28;47875;-60
2022/04/14 00:39:44;;;;;;;;;12.33;12.33;;;;;18.04;59.07;101471.13;2091074;28;47631;-60
2022/04/14 00:40:45;;;;;;;;;10.75;10.75;;;;;18.04;59.09;101472.91;2094041;28;47564;-60
2022/04/14 00:41:45;;;;;;;;;12.75;12.75;;;;;18.04;59.06;101475.59;2104881;28;47259;-60
2022/04/14 00:42:45;;;;;;;;;14.67;13.33;;;;;18.03;59.07;101476.53;2104731;28;47881;-60
2022/04/14 00:43:51;;;;;;;;;14.25;14.25;;;;;18.02;58.91;101472.09;2104772;28;47328;-60
2022/04/14 00:44:52;;;;;;;;;17.20;15.80;;;;;18.00;59.22;101472.16;2105225;28;47900;-61
2022/04/14 00:45:52;;;;;;;;;15.25;14.75;;;;;18.01;59.29;101475.72;2103326;28;47935;-60
2022/04/14 00:46:52;;;;;;;;;13.67;13.33;;;;;18.00;58.93;101477.53;2100909;28;46470;-60
2022/04/14 00:47:53;;;;;;;;;13.00;13.00;;;;;18.01;59.28;101478.41;2105003;28;47826;-60
2022/04/14 00:48:54;;;;;;;;;16.60;14.60;;;;;18.00;59.28;101476.66;2105044;28;47976;-60
2022/04/14 00:49:55;;;;;;;;;14.25;13.00;;;;;17.99;59.15;101477.59;2102312;28;47510;-61
2022/04/14 00:50:56;;;;;;;;;11.00;10.75;;;;;17.98;59.31;101475.84;2103591;28;46851;-59
2022/04/14 00:52:00;;;;;;;;;11.33;11.33;;;;;17.98;59.47;101474.03;2098888;28;47688;-59
2022/04/14 00:53:00;;;;;;;;;12.80;12.80;;;;;17.97;59.16;101471.41;2103942;28;47524;-61
2022/04/14 00:54:01;;;;;;;;;15.00;10.33;;;;;17.97;59.17;101476.78;2104766;28;47096;-59
2022/04/14 00:55:02;;;;;;;;;12.00;11.67;;;;;17.94;59.37;101475.97;2100069;28;47843;-60
2022/04/14 00:56:02;;;;;;;;;15.40;14.60;;;;;17.96;59.16;101477.72;2093081;28;47918;-59
2022/04/14 00:57:03;;;;;;;;;13.67;13.67;;;;;17.94;59.43;101472.41;2093225;28;47441;-60
2022/04/14 00:58:04;;;;;;;;;11.00;11.00;;;;;17.92;59.25;101475.16;2094937;28;47559;-61
2022/04/14 00:59:04;;;;;;;;;12.50;12.50;;;;;17.93;59.10;101471.53;2095480;28;47991;-60
2022/04/14 01:00:06;;;;;;;;;10.33;10.33;;;;;17.92;59.44;101476.97;2097729;27;47942;-60
2022/04/14 01:01:07;;;;;;;;;14.25;14.00;;;;;17.92;59.50;101474.28;2098489;28;47828;-59
2022/04/14 01:02:09;;;;;;;;;16.80;15.80;;;;;17.90;59.50;101471.66;2103428;28;47890;-60
2022/04/14 01:03:10;;;;;;;;;15.00;15.00;;;;;17.89;59.47;101469.03;2105092;28;47923;-60
2022/04/14 01:04:12;;;;;;;;;16.80;16.80;;;;;17.89;59.63;101475.28;2104522;27;47542;-60
2022/04/14 01:05:13;;;;;;;;;12.40;12.20;;;;;17.89;59.49;101471.72;2103643;28;47811;-60
2022/04/14 01:06:19;;;;;;;;;12.33;12.33;;;;;17.89;59.47;101477.06;2091974;28;48125;-60
2022/04/14 01:07:19;;;;;;;;;17.20;15.20;;;;;17.88;59.60;101484.25;2094419;28;47565;-60
2022/04/14 01:08:21;;;;;;;;;17.50;15.00;;;;;17.88;59.56;101478.91;2105878;27;47891;-60
2022/04/14 01:09:26;;;;;;;;;12.75;12.25;;;;;17.88;59.71;101480.69;2105060;28;48257;-60
2022/04/14 01:10:27;;;;;;;;;13.25;13.25;;;;;17.88;59.72;101478.91;2104717;28;47518;-59
2022/04/14 01:11:28;;;;;;;;;14.50;13.00;;;;;17.85;59.71;101464.72;2105212;28;47589;-60
2022/04/14 01:12:30;;;;;;;;;10.67;10.67;;;;;17.85;59.51;101478.16;2104228;28;46784;-60
2022/04/14 01:13:30;;;;;;;;;13.00;12.50;;;;;17.83;60.00;101467.47;2104817;27;48128;-60
2022/04/14 01:14:32;;;;;;;;;12.00;11.33;;;;;17.83;59.67;101464.78;2086249;28;47867;-60
2022/04/14 01:15:33;;;;;;;;;11.00;11.00;;;;;17.83;59.75;101469.28;2080805;28;47732;-61
2022/04/14 01:16:33;;;;;;;;;22.50;22.25;;;;;17.82;59.93;101471.09;2102313;28;47412;-60
2022/04/14 01:17:33;;;;;;;;;34.25;29.50;;;;;17.81;59.85;101477.41;2101031;27;47708;-60
2022/04/14 01:18:34;;;;;;;;;31.00;29.00;;;;;17.80;59.64;101472.97;2086532;28;47600;-60
2022/04/14 01:19:35;;;;;;;;;18.75;17.25;;;;;17.80;59.90;101480.16;2086759;28;47794;-59
2022/04/14 01:20:37;;;;;;;;;12.80;12.80;;;;;17.79;59.91;101476.59;2104403;27;47882;-59
2022/04/14 01:21:44;;;;;;;;;11.00;11.00;;;;;17.79;59.57;101481.97;2101730;27;47649;-60
2022/04/14 01:22:56;;;;;;;;;12.00;10.75;;;;;17.77;59.68;101473.06;2103995;27;48207;-60
2022/04/14 01:23:57;;;;;;;;;13.00;10.75;;;;;17.77;59.81;101481.13;2099277;27;47583;-61
2022/04/14 01:24:58;;;;;;;;;14.67;13.00;;;;;17.76;59.78;101479.38;2104642;27;47464;-59
2022/04/14 01:25:59;;;;;;;;;12.00;11.50;;;;;17.76;59.96;101478.50;2104587;27;47003;-59
2022/04/14 01:27:00;;;;;;;;;11.25;11.25;;;;;17.74;60.09;101486.63;2089076;28;46998;-58
2022/04/14 01:28:05;;;;;;;;;11.75;11.75;;;;;17.74;60.00;101486.63;2086768;28;47998;-60
2022/04/14 01:29:05;;;;;;;;;12.75;12.75;;;;;17.72;59.90;101482.25;2095753;28;47215;-59
2022/04/14 01:30:06;;;;;;;;;13.00;13.00;;;;;17.71;60.06;101473.31;2095726;28;48375;-60
2022/04/14 01:31:07;;;;;;;;;9.33;9.33;;;;;17.72;60.13;101485.81;2104894;27;47788;-60
2022/04/14 01:32:08;;;;;;;;;12.67;11.00;;;;;17.71;59.90;101481.38;2104450;27;47628;-60
2022/04/14 01:33:08;;;;;;;;;11.67;11.67;;;;;17.72;60.23;101476.88;2104687;27;47714;-61
2022/04/14 01:34:09;;;;;;;;;12.33;11.00;;;;;17.71;60.22;101485.88;2104861;27;47870;-60
2022/04/14 01:35:09;;;;;;;;;9.33;8.33;;;;;17.71;59.93;101485.88;2104874;27;47644;-60
2022/04/14 01:36:10;;;;;;;;;13.00;12.00;;;;;17.71;60.10;101481.38;2104919;27;47603;-60
2022/04/14 01:37:10;;;;;;;;;12.00;12.00;;;;;17.71;60.38;101485.88;2102872;27;47697;-60
2022/04/14 01:38:11;;;;;;;;;13.75;13.75;;;;;17.69;60.09;101491.31;2105104;27;47897;-60
2022/04/14 01:39:13;;;;;;;;;14.25;13.25;;;;;17.69;60.06;101485.06;2102998;27;47174;-59
2022/04/14 01:40:13;;;;;;;;;9.40;9.40;;;;;17.68;60.17;101489.53;2102881;27;47868;-59
2022/04/14 01:41:14;;;;;;;;;13.25;13.25;;;;;17.68;60.33;101496.69;2094400;28;47321;-59
2022/04/14 01:42:14;;;;;;;;;10.33;10.33;;;;;17.67;60.15;101487.78;2095377;28;48867;-59
2022/04/14 01:43:14;;;;;;;;;11.33;11.33;;;;;17.67;60.08;101497.66;2102610;27;47616;-59
2022/04/14 01:44:15;;;;;;;;;11.50;11.50;;;;;17.65;60.24;101487.81;2104608;27;47544;-60
2022/04/14 01:45:16;;;;;;;;;9.25;9.25;;;;;17.65;59.95;101484.25;2105030;27;47461;-59
2022/04/14 01:46:16;;;;;;;;;12.50;12.50;;;;;17.64;60.34;101480.69;2104031;27;47493;-59
2022/04/14 01:47:16;;;;;;;;;12.00;12.00;;;;;17.65;60.11;101492.31;2104654;27;47853;-59
2022/04/14 01:48:17;;;;;;;;;12.25;11.50;;;;;17.65;60.21;101489.63;2102299;27;47674;-58
2022/04/14 01:49:18;;;;;;;;;13.00;13.00;;;;;17.63;60.49;101480.75;2100755;27;47803;-59
2022/04/14 01:50:18;;;;;;;;;10.50;10.50;;;;;17.63;60.37;101487.00;2102833;27;47382;-60
2022/04/14 01:51:19;;;;;;;;;9.50;9.50;;;;;17.63;60.33;101488.81;2103234;28;48057;-60
2022/04/14 01:52:20;;;;;;;;;14.80;12.00;;;;;17.63;60.10;101487.00;2102575;28;47257;-61
2022/04/14 01:53:21;;;;;;;;;12.50;12.25;;;;;17.63;60.26;101481.63;2096448;28;47646;-62
2022/04/14 01:54:21;;;;;;;;;13.25;11.25;;;;;17.63;60.51;101488.81;2103596;28;48060;-60
2022/04/14 01:55:21;;;;;;;;;12.75;12.25;;;;;17.62;60.20;101485.25;2102077;28;47650;-60
2022/04/14 01:56:23;;;;;;;;;14.75;14.75;;;;;17.62;60.67;101481.69;2100439;28;50425;-59
2022/04/14 01:57:23;;;;;;;;;13.20;13.20;;;;;17.61;60.45;101486.19;2095912;28;48149;-59
2022/04/14 01:58:23;;;;;;;;;13.75;13.75;;;;;17.61;60.40;101485.31;2096605;28;47730;-59
2022/04/14 01:59:24;;;;;;;;;12.25;12.25;;;;;17.59;60.56;101484.50;2098199;28;47949;-60
2022/04/14 02:00:24;;;;;;;;;12.00;12.00;;;;;17.60;60.48;101483.56;2104385;28;48265;-60
2022/04/14 02:01:25;;;;;;;;;15.00;13.25;;;;;17.59;60.41;101480.00;2100640;28;47538;-60
2022/04/14 02:02:25;;;;;;;;;10.75;9.75;;;;;17.59;60.59;101480.00;2099560;28;47596;-60
2022/04/14 02:03:26;;;;;;;;;11.25;11.25;;;;;17.59;60.73;101479.13;2095418;28;47802;-60
2022/04/14 02:04:26;;;;;;;;;13.50;12.50;;;;;17.59;60.86;101477.31;2095204;28;47668;-59
2022/04/14 02:05:27;;;;;;;;;13.25;12.25;;;;;17.59;60.74;101477.31;2104327;28;48041;-59
2022/04/14 02:06:27;;;;;;;;;12.50;11.00;;;;;17.60;60.53;101472.84;2104324;28;47287;-59
2022/04/14 02:07:27;;;;;;;;;14.25;13.25;;;;;17.59;60.53;101480.00;2104503;28;48133;-59
2022/04/14 02:08:28;;;;;;;;;13.00;12.25;;;;;17.60;60.60;101476.38;2102805;27;47700;-60
2022/04/14 02:09:29;;;;;;;;;15.00;15.00;;;;;17.59;60.50;101479.13;2104756;28;47857;-59
2022/04/14 02:10:29;;;;;;;;;15.00;14.25;;;;;17.59;60.64;101476.44;2101618;28;48100;-58
2022/04/14 02:11:30;;;;;;;;;13.25;12.75;;;;;17.59;60.63;101469.28;2097403;28;47700;-60
2022/04/14 02:12:30;;;;;;;;;17.50;16.25;;;;;17.58;60.62;101478.25;2101431;28;47834;-59
2022/04/14 02:13:31;;;;;;;;;14.75;13.75;;;;;17.58;60.79;101472.91;2104452;28;48026;-60
2022/04/14 02:14:32;;;;;;;;;10.60;10.00;;;;;17.58;60.47;101480.06;2098339;28;47603;-59
2022/04/14 02:15:32;;;;;;;;;11.75;11.75;;;;;17.59;60.70;101471.09;2103598;28;47256;-59
2022/04/14 02:16:32;;;;;;;;;14.75;14.75;;;;;17.58;60.73;101474.69;2099991;28;47632;-59
2022/04/14 02:17:33;;;;;;;;;12.25;11.75;;;;;17.58;60.60;101475.56;2085509;28;47711;-60
2022/04/14 02:18:34;;;;;;;;;12.00;11.50;;;;;17.59;60.82;101473.78;2078427;28;47722;-58
2022/04/14 02:19:34;;;;;;;;;14.75;13.25;;;;;17.58;60.84;101477.38;2104561;28;47604;-60
2022/04/14 02:20:34;;;;;;;;;11.50;11.25;;;;;17.58;60.73;101474.69;2104275;28;47500;-60
2022/04/14 02:21:35;;;;;;;;;12.00;12.00;;;;;17.57;60.84;101473.84;2103096;28;47311;-59
2022/04/14 02:22:42;;;;;;;;;10.75;10.75;;;;;17.57;60.77;101476.50;2099446;28;47833;-60
2022/04/14 02:23:42;;;;;;;;;12.00;11.60;;;;;17.58;60.81;101477.38;2101860;28;47464;-59
2022/04/14 02:24:42;;;;;;;;;14.00;12.75;;;;;17.57;61.04;101470.28;2096135;28;47761;-61
2022/04/14 02:25:43;;;;;;;;;13.75;13.00;;;;;17.56;60.70;101472.09;2101910;28;45194;-60
2022/04/14 02:26:43;;;;;;;;;11.75;11.75;;;;;17.57;60.92;101472.97;2102128;28;47382;-60
2022/04/14 02:27:43;;;;;;;;;14.25;12.75;;;;;17.56;60.98;101472.09;2104301;28;47676;-59
2022/04/14 02:28:44;;;;;;;;;15.00;13.00;;;;;17.56;60.89;101473.91;2103992;28;47908;-60
2022/04/14 02:29:44;;;;;;;;;14.00;13.50;;;;;17.56;60.90;101473.91;2104483;28;48265;-60
2022/04/14 02:30:46;;;;;;;;;14.25;14.25;;;;;17.56;60.84;101473.91;2104176;28;47402;-60
2022/04/14 02:31:46;;;;;;;;;13.40;13.40;;;;;17.55;61.08;101475.69;2102800;27;47696;-60
2022/04/14 02:32:46;;;;;;;;;16.50;14.50;;;;;17.54;60.98;101468.59;2104151;28;47820;-60
2022/04/14 02:33:47;;;;;;;;;14.00;12.25;;;;;17.55;60.97;101477.50;2104310;28;47829;-60
2022/04/14 02:34:47;;;;;;;;;13.75;13.75;;;;;17.53;60.97;101472.22;2104303;28;47565;-60
2022/04/14 02:35:47;;;;;;;;;13.75;13.75;;;;;17.53;61.00;101471.31;2104405;28;47833;-62
2022/04/14 02:36:48;;;;;;;;;15.75;14.75;;;;;17.53;60.79;101469.53;2103759;28;47584;-60
2022/04/14 02:37:48;;;;;;;;;12.50;12.50;;;;;17.54;60.84;101470.41;2103593;27;47430;-59
2022/04/14 02:38:49;;;;;;;;;12.75;12.75;;;;;17.51;60.91;101466.00;2102774;28;48082;-60
2022/04/14 02:39:49;;;;;;;;;13.75;13.75;;;;;17.52;61.06;101467.75;2104353;28;47402;-59
2022/04/14 02:40:49;;;;;;;;;12.00;11.50;;;;;17.52;61.03;101464.19;2102351;28;47033;-59
2022/04/14 02:41:50;;;;;;;;;11.00;10.75;;;;;17.51;61.00;101468.69;2104378;28;47409;-60
2022/04/14 02:42:53;;;;;;;;;12.50;10.25;;;;;17.50;61.00;101480.34;2100833;28;47701;-60
2022/04/14 02:43:54;;;;;;;;;10.60;10.60;;;;;17.50;61.02;101480.34;2104396;28;47479;-60
2022/04/14 02:44:54;;;;;;;;;14.75;13.75;;;;;17.50;60.81;101479.47;2099256;28;47742;-60
2022/04/14 02:45:54;;;;;;;;;14.00;14.00;;;;;17.50;61.36;101480.34;2095634;28;47536;-61
2022/04/14 02:46:55;;;;;;;;;12.25;12.25;;;;;17.51;61.14;101483.91;2103286;28;47416;-60
2022/04/14 02:47:55;;;;;;;;;12.50;12.25;;;;;17.51;61.05;101478.53;2104220;28;47612;-60
2022/04/14 02:48:56;;;;;;;;;15.25;13.25;;;;;17.50;61.14;101482.16;2102939;28;47830;-61
2022/04/14 02:49:56;;;;;;;;;15.00;15.00;;;;;17.50;61.20;101487.53;2104459;28;47659;-61
2022/04/14 02:50:57;;;;;;;;;18.50;16.25;;;;;17.52;60.86;101485.66;2097729;28;47181;-61
2022/04/14 02:51:57;;;;;;;;;16.00;16.00;;;;;17.51;60.76;101487.47;2097521;28;47354;-60
2022/04/14 02:52:57;;;;;;;;;14.25;14.25;;;;;17.52;61.10;101485.66;2104196;28;47985;-60
2022/04/14 02:53:58;;;;;;;;;16.25;15.75;;;;;17.51;61.25;101484.78;2101874;28;48055;-60
2022/04/14 02:54:58;;;;;;;;;15.00;14.75;;;;;17.51;60.92;101484.78;2103020;28;47309;-60
2022/04/14 02:55:59;;;;;;;;;20.00;20.00;;;;;17.51;60.78;101479.41;2098963;28;47818;-60
2022/04/14 02:56:59;;;;;;;;;16.00;16.00;;;;;17.50;61.00;101491.09;2098555;28;47811;-59
2022/04/14 02:57:59;;;;;;;;;18.00;16.50;;;;;17.49;61.19;101489.34;2103974;28;47808;-60
2022/04/14 02:59:00;;;;;;;;;17.25;17.25;;;;;17.49;61.17;101489.34;2099550;28;47413;-59
2022/04/14 03:00:02;;;;;;;;;13.50;13.50;;;;;17.49;60.90;101483.09;2104262;28;48067;-60
2022/04/14 03:01:03;;;;;;;;;14.20;12.80;;;;;17.48;61.06;101484.03;2094943;28;47416;-60
2022/04/14 03:02:04;;;;;;;;;20.00;18.00;;;;;17.47;61.05;101483.16;2094956;28;47395;-60
2022/04/14 03:03:05;;;;;;;;;16.80;16.80;;;;;17.47;60.96;101476.91;2100323;28;48180;-59
2022/04/14 03:04:05;;;;;;;;;18.25;16.75;;;;;17.47;60.89;101480.47;2102862;28;47532;-59
2022/04/14 03:05:07;;;;;;;;;17.25;17.25;;;;;17.46;60.91;101481.41;2103890;28;47336;-60
2022/04/14 03:06:07;;;;;;;;;19.80;18.40;;;;;17.48;61.09;101481.34;2099378;28;47262;-60
2022/04/14 03:07:08;;;;;;;;;18.75;18.50;;;;;17.48;60.82;101482.22;2101990;28;47886;-60
2022/04/14 03:08:08;;;;;;;;;20.00;19.25;;;;;17.49;60.90;101478.59;2102488;28;47771;-60
2022/04/14 03:09:09;;;;;;;;;19.75;19.75;;;;;17.48;60.92;101479.53;2104070;28;46728;-60
2022/04/14 03:10:09;;;;;;;;;19.00;18.00;;;;;17.48;60.99;101476.88;2103370;28;47934;-60
2022/04/14 03:11:10;;;;;;;;;19.75;18.75;;;;;17.47;61.34;101482.28;2096221;28;47095;-60
2022/04/14 03:12:10;;;;;;;;;22.25;20.50;;;;;17.46;60.76;101477.84;2099751;28;48038;-60
2022/04/14 03:13:10;;;;;;;;;20.25;17.00;;;;;17.46;61.10;101483.22;2103680;28;47931;-60
2022/04/14 03:14:11;;;;;;;;;21.75;19.25;;;;;17.45;60.81;101474.31;2101449;28;47662;-60
2022/04/14 03:15:12;;;;;;;;;22.25;20.75;;;;;17.44;60.88;101482.41;2103874;28;48183;-60
2022/04/14 03:16:13;;;;;;;;;22.00;20.25;;;;;17.44;60.95;101480.59;2104029;28;47915;-60
2022/04/14 03:17:13;;;;;;;;;28.60;26.40;;;;;17.44;61.24;101491.34;2103754;28;47905;-61
2022/04/14 03:18:14;;;;;;;;;23.25;22.25;;;;;17.44;60.71;101485.09;2103674;27;47380;-61
2022/04/14 03:19:15;;;;;;;;;27.40;26.20;;;;;17.43;61.12;101486.91;2103949;28;47307;-60
2022/04/14 03:20:16;;;;;;;;;29.50;25.75;;;;;17.44;60.95;101491.34;2103676;28;47782;-58
2022/04/14 03:21:16;;;;;;;;;24.00;24.00;;;;;17.44;61.16;101504.75;2100704;28;47186;-58
2022/04/14 03:22:17;;;;;;;;;28.00;27.75;;;;;17.45;61.35;101502.94;2095730;28;47932;-59
2022/04/14 03:23:17;;;;;;;;;29.25;25.75;;;;;17.44;61.12;101495.81;2102320;28;47415;-60
2022/04/14 03:24:17;;;;;;;;;26.75;24.25;;;;;17.45;61.24;101502.94;2102629;28;47512;-59
2022/04/14 03:25:18;;;;;;;;;24.75;23.00;;;;;17.44;60.79;101496.69;2087812;28;47468;-60
2022/04/14 03:26:18;;;;;;;;;30.50;28.00;;;;;17.44;60.94;101499.38;2096033;28;47938;-59
2022/04/14 03:27:19;;;;;;;;;30.25;27.50;;;;;17.44;61.08;101501.19;2105697;27;47985;-59
2022/04/14 03:28:19;;;;;;;;;28.50;27.50;;;;;17.41;61.13;101491.47;2104862;27;47562;-60
2022/04/14 03:29:19;;;;;;;;;31.75;29.00;;;;;17.42;60.86;101500.38;2097296;28;47902;-60
2022/04/14 03:30:20;;;;;;;;;28.00;27.00;;;;;17.41;61.13;101502.19;2102883;27;46618;-59
2022/04/14 03:31:20;;;;;;;;;29.50;28.25;;;;;17.40;61.08;101500.41;2103991;27;47742;-58
2022/04/14 03:32:22;;;;;;;;;31.00;29.00;;;;;17.39;61.16;101497.78;2103919;27;47629;-60
2022/04/14 03:33:22;;;;;;;;;28.80;27.80;;;;;17.38;61.09;101499.59;2094445;28;47180;-60
2022/04/14 03:34:23;;;;;;;;;24.25;24.25;;;;;17.36;61.03;101502.34;2095058;28;47321;-60
2022/04/14 03:35:23;;;;;;;;;31.50;29.25;;;;;17.34;61.14;101504.22;2103362;27;48068;-58
2022/04/14 03:36:23;;;;;;;;;33.50;30.25;;;;;17.34;60.70;101503.34;2103457;27;48585;-60
2022/04/14 03:37:24;;;;;;;;;38.00;31.75;;;;;17.30;60.84;101499.03;2095255;28;47994;-60
2022/04/14 03:38:24;;;;;;;;;31.25;30.25;;;;;17.27;61.12;101510.72;2100144;27;47672;-60
2022/04/14 03:39:25;;;;;;;;;30.50;29.50;;;;;17.24;61.21;101501.94;2103565;27;47649;-60
2022/04/14 03:40:25;;;;;;;;;30.25;29.50;;;;;17.22;61.10;101501.97;2096334;27;47486;-58
2022/04/14 03:41:26;;;;;;;;;26.75;26.00;;;;;17.20;61.12;101503.84;2093907;28;47661;-60
2022/04/14 03:42:26;;;;;;;;;33.00;31.00;;;;;17.19;61.34;101499.41;2093089;28;47470;-58
2022/04/14 03:43:27;;;;;;;;;37.25;31.75;;;;;17.18;61.26;101504.84;2103654;27;48010;-58
2022/04/14 03:44:27;;;;;;;;;31.00;29.00;;;;;17.16;61.42;101504.91;2103403;27;47868;-58
2022/04/14 03:45:28;;;;;;;;;30.50;29.50;;;;;17.16;61.14;101501.34;2096081;28;47450;-60
2022/04/14 03:46:28;;;;;;;;;33.00;29.75;;;;;17.16;61.17;101507.59;2103939;27;47773;-60
2022/04/14 03:47:28;;;;;;;;;37.75;32.00;;;;;17.15;61.42;101502.25;2104037;27;47363;-59
2022/04/14 03:48:29;;;;;;;;;36.00;33.00;;;;;17.13;61.25;101507.69;2103436;27;47705;-60
2022/04/14 03:49:29;;;;;;;;;35.50;31.00;;;;;17.11;61.02;101504.19;2104762;27;47525;-60
2022/04/14 03:50:30;;;;;;;;;31.00;29.75;;;;;17.09;61.40;101511.41;2105424;27;47582;-61
2022/04/14 03:51:30;;;;;;;;;30.75;29.75;;;;;17.07;61.24;101515.97;2105576;27;47719;-59
2022/04/14 03:52:31;;;;;;;;;28.75;27.75;;;;;17.06;61.00;101514.22;2105555;27;47578;-60
2022/04/14 03:53:31;;;;;;;;;33.00;31.00;;;;;17.04;61.40;101510.72;2105306;27;47992;-59
2022/04/14 03:54:31;;;;;;;;;33.25;30.25;;;;;17.04;61.18;101513.41;2103156;27;47757;-61
2022/04/14 03:55:32;;;;;;;;;37.25;32.00;;;;;17.03;60.97;101515.19;2105658;27;47915;-60
2022/04/14 03:56:32;;;;;;;;;30.25;28.75;;;;;17.03;61.32;101512.53;2103064;27;47435;-59
2022/04/14 03:57:33;;;;;;;;;31.50;30.50;;;;;17.02;61.11;101513.44;2104578;27;47702;-60
2022/04/14 03:58:33;;;;;;;;;33.25;28.75;;;;;17.02;61.28;101516.13;2105291;27;47595;-60
2022/04/14 03:59:34;;;;;;;;;34.50;32.00;;;;;17.02;61.12;101516.13;2105017;27;47626;-60
2022/04/14 04:00:34;;;;;;;;;34.25;31.00;;;;;17.02;61.53;101509.88;2103518;27;47630;-60
2022/04/14 04:01:34;;;;;;;;;32.25;31.00;;;;;17.01;61.09;101506.31;2102044;27;48038;-60
2022/04/14 04:02:36;;;;;;;;;33.00;30.00;;;;;17.00;61.57;101515.28;2104386;27;47937;-60
2022/04/14 04:03:36;;;;;;;;;32.60;30.80;;;;;17.00;61.17;101514.41;2105172;27;47778;-61
2022/04/14 04:04:37;;;;;;;;;33.25;30.25;;;;;16.98;61.56;101509.09;2104941;27;47402;-60
2022/04/14 04:05:38;;;;;;;;;29.25;27.50;;;;;16.98;61.16;101509.09;2103505;27;47705;-61
2022/04/14 04:06:39;;;;;;;;;30.20;29.00;;;;;16.98;61.58;101513.59;2105257;27;48008;-61
2022/04/14 04:07:39;;;;;;;;;31.50;30.25;;;;;16.98;61.54;101510.91;2104272;27;47713;-60
2022/04/14 04:08:40;;;;;;;;;36.25;32.50;;;;;16.96;61.67;101510.97;2101067;27;47380;-60
2022/04/14 04:09:40;;;;;;;;;32.25;30.25;;;;;16.97;61.27;101511.84;2105115;27;47929;-60
2022/04/14 04:10:40;;;;;;;;;29.00;28.50;;;;;16.98;61.66;101513.59;2104890;27;47903;-61
2022/04/14 04:11:41;;;;;;;;;36.75;32.00;;;;;16.96;61.36;101513.66;2087168;28;47541;-61
2022/04/14 04:12:42;;;;;;;;;32.50;30.00;;;;;16.96;61.49;101516.34;2087390;28;47871;-61
2022/04/14 04:13:42;;;;;;;;;31.25;29.50;;;;;16.95;61.57;101511.03;2104300;27;47689;-61
2022/04/14 04:14:43;;;;;;;;;31.50;30.50;;;;;16.95;61.42;101519.06;2105086;27;47530;-60
2022/04/14 04:15:44;;;;;;;;;29.00;28.60;;;;;16.93;61.35;101512.91;2102249;27;47666;-61
2022/04/14 04:16:45;;;;;;;;;24.75;24.50;;;;;16.91;61.53;101509.41;2101352;27;47122;-60
2022/04/14 04:17:46;;;;;;;;;33.80;31.80;;;;;16.88;61.32;101507.69;2104924;27;47561;-60
2022/04/14 04:18:47;;;;;;;;;31.80;30.80;;;;;16.88;61.44;101498.75;2102860;27;47983;-59
2022/04/14 04:19:47;;;;;;;;;31.00;31.00;;;;;16.88;61.64;101498.75;2101514;27;47642;-60
2022/04/14 04:20:48;;;;;;;;;31.00;29.75;;;;;16.87;61.76;101494.31;2103507;27;47514;-58
2022/04/14 04:21:48;;;;;;;;;31.75;29.50;;;;;16.89;61.33;101497.81;2097430;28;47369;-59
2022/04/14 04:22:48;;;;;;;;;31.50;29.25;;;;;16.88;61.44;101494.28;2095983;28;47656;-58
2022/04/14 04:23:49;;;;;;;;;30.25;29.00;;;;;16.89;61.65;101495.16;2086968;28;47651;-59
2022/04/14 04:24:49;;;;;;;;;32.75;31.00;;;;;16.89;61.59;101492.47;2087094;28;47556;-57
2022/04/14 04:25:50;;;;;;;;;34.00;29.75;;;;;16.89;61.90;101497.81;2099479;27;47637;-59
2022/04/14 04:26:50;;;;;;;;;32.50;29.25;;;;;16.89;61.67;101489.78;2102194;27;47238;-59
2022/04/14 04:27:51;;;;;;;;;33.25;31.00;;;;;16.89;61.52;101495.16;2100537;27;47329;-58
2022/04/14 04:28:51;;;;;;;;;30.25;29.25;;;;;16.88;61.82;101496.06;2102152;27;47840;-59
2022/04/14 04:29:52;;;;;;;;;34.50;31.00;;;;;16.88;61.90;101501.44;2104740;27;47592;-59
2022/04/14 04:30:52;;;;;;;;;28.25;27.75;;;;;16.88;61.85;101496.06;2102029;27;47591;-59
2022/04/14 04:31:53;;;;;;;;;35.00;30.25;;;;;16.87;61.70;101505.06;2100999;27;47871;-59
2022/04/14 04:32:53;;;;;;;;;27.00;25.75;;;;;16.87;62.01;101505.06;2100873;27;47421;-60
2022/04/14 04:33:54;;;;;;;;;32.75;29.00;;;;;16.88;61.88;101506.81;2104725;27;47773;-60
2022/04/14 04:34:54;;;;;;;;;30.75;30.25;;;;;16.87;61.76;101500.56;2105078;27;48024;-60
2022/04/14 04:35:55;;;;;;;;;28.00;26.75;;;;;16.88;61.92;101507.69;2105461;27;47177;-60